Time;durP1;ratioP1;P1;durP2;ratioP2;P2;SDS_P1;SDS_P2;PMS_P1;PMS_P2;Temp;Humidity;BMP_temperature;BMP_pressure;BME280_temperature;BME280_humidity;BME280_pressure;Samples;Min_cycle;Max_cycle;Signal;HPM_P1;HPM_P2
2023/06/11 00:01:50;;;;;;;;;;;21.20;99.90;;;;;;5051308;28;19929;-69
2023/06/11 00:04:19;;;;;;;;;;;21.20;99.90;;;;;;5051061;28;20465;-69
2023/06/11 00:06:45;;;;;;;;;;;21.20;99.90;;;;;;5050723;28;19924;-69
2023/06/11 00:09:11;;;;;;;;;;;21.10;99.90;;;;;;5051696;28;19924;-69
2023/06/11 00:11:41;;;;;;;;;;;21.10;99.90;;;;;;5050827;28;19921;-69
2023/06/11 00:14:08;;;;;;;;;;;21.10;99.90;;;;;;5051989;28;19920;-69
2023/06/11 00:16:34;;;;;;;;;;;21.10;99.90;;;;;;5050273;28;19924;-69
2023/06/11 00:19:00;;;;;;;;;;;21.10;99.90;;;;;;5050279;28;19921;-69
2023/06/11 00:21:25;;;;;;;;;;;21.00;99.90;;;;;;5050593;28;20031;-69
2023/06/11 00:23:51;;;;;;;;;;;21.00;99.90;;;;;;5048999;28;19935;-69
2023/06/11 00:26:16;;;;;;;;;;;21.00;99.90;;;;;;5057445;28;19920;-69
2023/06/11 00:28:42;;;;;;;;;;;21.00;99.90;;;;;;5065588;28;20378;-69
2023/06/11 00:31:07;;;;;;;;;;;21.00;99.90;;;;;;5049161;28;20415;-69
2023/06/11 00:33:33;;;;;;;;;;;20.90;99.90;;;;;;5052938;28;19924;-69
2023/06/11 00:35:58;;;;;;;;;;;20.90;99.90;;;;;;5053060;28;19920;-69
2023/06/11 00:38:24;;;;;;;;;;;20.90;99.90;;;;;;5052786;28;19920;-69
2023/06/11 00:40:49;;;;;;;;;;;20.80;99.90;;;;;;5053648;28;20000;-69
2023/06/11 00:43:17;;;;;;;;;;;20.80;99.90;;;;;;5053375;28;19921;-69
2023/06/11 00:45:44;;;;;;;;;;;20.80;99.90;;;;;;5052390;28;19920;-69
2023/06/11 00:48:10;;;;;;;;;;;20.70;99.90;;;;;;5052736;28;20406;-69
2023/06/11 00:50:44;;;;;;;;;;;20.70;99.90;;;;;;5052173;28;20019;-69
2023/06/11 00:53:13;;;;;;;;;;;20.70;99.90;;;;;;5053009;28;19920;-69
2023/06/11 00:55:39;;;;;;;;;;;20.70;99.90;;;;;;5052719;28;19921;-69
2023/06/11 00:58:13;;;;;;;;;;;20.60;99.90;;;;;;5052126;28;20285;-69
2023/06/11 01:00:40;;;;;;;;;;;20.60;99.90;;;;;;5052834;28;20552;-69
2023/06/11 01:03:08;;;;;;;;;;;20.60;99.90;;;;;;5053660;28;19974;-69
2023/06/11 01:05:42;;;;;;;;;;;20.60;99.90;;;;;;5053192;28;20408;-69
2023/06/11 01:08:09;;;;;;;;;;;20.60;99.90;;;;;;5053183;28;19921;-70
2023/06/11 01:10:34;;;;;;;;;;;20.60;99.90;;;;;;5052803;28;20029;-70
2023/06/11 01:13:01;;;;;;;;;;;20.60;99.90;;;;;;5052296;28;19994;-69
2023/06/11 01:15:26;;;;;;;;;;;20.60;99.90;;;;;;5054492;28;19927;-69
2023/06/11 01:18:00;;;;;;;;;;;20.60;99.90;;;;;;5051793;28;19921;-69
2023/06/11 01:20:34;;;;;;;;;;;20.60;99.90;;;;;;5053881;28;20314;-70
2023/06/11 01:23:04;;;;;;;;;;;20.50;99.90;;;;;;5060216;28;19920;-69
2023/06/11 01:25:48;;;;;;;;;;;20.50;99.90;;;;;;5066562;28;20391;-69
2023/06/11 01:28:16;;;;;;;;;;;20.50;99.90;;;;;;5052276;28;20169;-69
2023/06/11 01:30:45;;;;;;;;;;;20.50;99.90;;;;;;5068106;28;20370;-69
2023/06/11 01:33:10;;;;;;;;;;;20.40;99.90;;;;;;5058481;28;19925;-69
2023/06/11 01:35:36;;;;;;;;;;;20.40;99.90;;;;;;5050621;28;19973;-69
2023/06/11 01:38:02;;;;;;;;;;;20.40;99.90;;;;;;5040635;28;19975;-69
2023/06/11 01:40:28;;;;;;;;;;;20.40;99.90;;;;;;5038868;28;19924;-69
2023/06/11 01:42:54;;;;;;;;;;;20.30;99.90;;;;;;5058432;28;19927;-69
2023/06/11 01:45:21;;;;;;;;;;;20.30;99.90;;;;;;5056975;28;20394;-69
2023/06/11 01:47:50;;;;;;;;;;;20.20;99.90;;;;;;5070280;28;20012;-69
2023/06/11 01:50:17;;;;;;;;;;;20.20;99.90;;;;;;5069255;28;19963;-69
2023/06/11 01:52:42;;;;;;;;;;;20.20;99.90;;;;;;5051582;28;20384;-69
2023/06/11 01:55:08;;;;;;;;;;;20.10;99.90;;;;;;5069154;28;19932;-69
2023/06/11 01:57:34;;;;;;;;;;;20.10;99.90;;;;;;5070091;28;20402;-69
2023/06/11 02:00:00;;;;;;;;;;;20.20;99.90;;;;;;5039824;28;20403;-69
2023/06/11 02:02:28;;;;;;;;;;;20.10;99.90;;;;;;5056770;28;20041;-69
2023/06/11 02:04:54;;;;;;;;;;;20.10;99.90;;;;;;5058014;28;19998;-69
2023/06/11 02:07:19;;;;;;;;;;;20.10;99.90;;;;;;5069285;28;20019;-69
2023/06/11 02:09:45;;;;;;;;;;;20.00;99.90;;;;;;5069664;28;20277;-69
2023/06/11 02:12:11;;;;;;;;;;;20.00;99.90;;;;;;5057172;28;19920;-69
2023/06/11 02:14:36;;;;;;;;;;;20.00;99.90;;;;;;5067777;28;19927;-69
2023/06/11 02:17:02;;;;;;;;;;;19.90;99.90;;;;;;5068534;28;20303;-69
2023/06/11 02:19:27;;;;;;;;;;;19.90;99.90;;;;;;5062275;28;19928;-69
2023/06/11 02:21:53;;;;;;;;;;;19.90;99.90;;;;;;5049502;28;20330;-69
2023/06/11 02:24:18;;;;;;;;;;;19.90;99.90;;;;;;5050971;28;19920;-69
2023/06/11 02:26:44;;;;;;;;;;;19.80;99.90;;;;;;5015904;28;19935;-69
2023/06/11 02:29:09;;;;;;;;;;;19.80;99.90;;;;;;5050559;28;20011;-69
2023/06/11 02:31:35;;;;;;;;;;;19.80;99.90;;;;;;5055838;28;19921;-69
2023/06/11 02:34:00;;;;;;;;;;;19.80;99.90;;;;;;5050637;28;19927;-69
2023/06/11 02:36:26;;;;;;;;;;;19.70;99.90;;;;;;5032681;28;19999;-68
2023/06/11 02:38:51;;;;;;;;;;;19.70;99.90;;;;;;5049963;28;19944;-69
2023/06/11 02:41:17;;;;;;;;;;;19.70;99.90;;;;;;5050522;28;19927;-68
2023/06/11 02:43:42;;;;;;;;;;;19.70;99.90;;;;;;5061148;28;19926;-69
2023/06/11 02:46:08;;;;;;;;;;;19.60;99.90;;;;;;5058361;28;19932;-69
2023/06/11 02:48:33;;;;;;;;;;;19.60;99.90;;;;;;5047718;28;20533;-69
2023/06/11 02:50:59;;;;;;;;;;;19.60;99.90;;;;;;5059389;28;19924;-69
2023/06/11 02:53:24;;;;;;;;;;;19.50;99.90;;;;;;5051357;28;19921;-69
2023/06/11 02:55:50;;;;;;;;;;;19.50;99.90;;;;;;5050770;28;20601;-69
2023/06/11 02:58:15;;;;;;;;;;;19.50;99.90;;;;;;5051280;28;19935;-70
2023/06/11 03:00:41;;;;;;;;;;;19.40;99.90;;;;;;5057895;28;20558;-69
2023/06/11 03:03:06;;;;;;;;;;;19.40;99.90;;;;;;5055220;28;19920;-69
2023/06/11 03:05:32;;;;;;;;;;;19.30;99.90;;;;;;5049523;28;20444;-67
2023/06/11 03:07:57;;;;;;;;;;;19.30;99.90;;;;;;5031831;28;19925;-68
2023/06/11 03:10:27;;;;;;;;;;;19.30;99.90;;;;;;5031667;28;20031;-69
2023/06/11 03:12:53;;;;;;;;;;;19.30;99.90;;;;;;5049488;28;19921;-69
2023/06/11 03:15:18;;;;;;;;;;;19.30;99.90;;;;;;5051403;28;20343;-69
2023/06/11 03:17:44;;;;;;;;;;;19.30;99.90;;;;;;5051004;28;20015;-69
2023/06/11 03:20:10;;;;;;;;;;;19.30;99.90;;;;;;5052602;28;19947;-69
2023/06/11 03:22:35;;;;;;;;;;;19.20;99.90;;;;;;5050374;28;19921;-68
2023/06/11 03:25:01;;;;;;;;;;;19.20;99.90;;;;;;5050921;28;19928;-68
2023/06/11 03:27:26;;;;;;;;;;;19.20;99.90;;;;;;5052886;28;19943;-69
2023/06/11 03:29:52;;;;;;;;;;;19.20;99.90;;;;;;5052777;28;19932;-69
2023/06/11 03:32:17;;;;;;;;;;;19.10;99.90;;;;;;5048062;28;19962;-69
2023/06/11 03:34:43;;;;;;;;;;;19.20;99.90;;;;;;5057038;28;19920;-69
2023/06/11 03:37:09;;;;;;;;;;;19.10;99.90;;;;;;5031249;28;19928;-69
2023/06/11 03:39:34;;;;;;;;;;;19.10;99.90;;;;;;5057577;28;20007;-69
2023/06/11 03:42:00;;;;;;;;;;;19.10;99.90;;;;;;5057519;28;19965;-69
2023/06/11 03:44:26;;;;;;;;;;;19.10;99.90;;;;;;5049814;28;20291;-68
2023/06/11 03:46:51;;;;;;;;;;;19.10;99.90;;;;;;5049803;28;19925;-68
2023/06/11 03:49:16;;;;;;;;;;;19.10;99.90;;;;;;5049624;28;20337;-68
2023/06/11 03:51:42;;;;;;;;;;;19.10;99.90;;;;;;5050048;28;19920;-69
2023/06/11 03:54:07;;;;;;;;;;;19.10;99.90;;;;;;5031621;28;19924;-69
2023/06/11 03:56:33;;;;;;;;;;;19.10;99.90;;;;;;5031904;28;19944;-69
2023/06/11 03:58:58;;;;;;;;;;;19.10;99.90;;;;;;5049739;28;19925;-69
2023/06/11 04:01:24;;;;;;;;;;;19.10;99.90;;;;;;5049695;28;20051;-69
2023/06/11 04:03:49;;;;;;;;;;;19.10;99.90;;;;;;5049976;28;19947;-69
2023/06/11 04:06:17;;;;;;;;;;;19.10;99.90;;;;;;5048706;28;19920;-70
2023/06/11 04:08:42;;;;;;;;;;;19.10;99.90;;;;;;5049577;28;20050;-69
2023/06/11 04:11:08;;;;;;;;;;;19.10;99.90;;;;;;5051395;28;19999;-69
2023/06/11 04:13:34;;;;;;;;;;;19.20;99.90;;;;;;5055384;28;20289;-69
2023/06/11 04:15:59;;;;;;;;;;;19.20;99.90;;;;;;5051425;28;19928;-69
2023/06/11 04:18:26;;;;;;;;;;;19.20;99.90;;;;;;5054611;28;19925;-69
2023/06/11 04:20:51;;;;;;;;;;;19.20;99.90;;;;;;5015447;28;20011;-69
2023/06/11 04:23:17;;;;;;;;;;;19.20;99.90;;;;;;5049833;28;20051;-69
2023/06/11 04:25:43;;;;;;;;;;;19.20;99.90;;;;;;5049583;28;20007;-69
2023/06/11 04:28:09;;;;;;;;;;;19.30;99.90;;;;;;5049409;28;20003;-69
2023/06/11 04:30:34;;;;;;;;;;;19.30;99.90;;;;;;5049800;28;20022;-69
2023/06/11 04:33:03;;;;;;;;;;;19.30;99.90;;;;;;5049984;28;19921;-69
2023/06/11 04:35:34;;;;;;;;;;;19.30;99.90;;;;;;5050163;28;20450;-69
2023/06/11 04:38:05;;;;;;;;;;;19.30;99.90;;;;;;5050251;28;19920;-69
2023/06/11 04:40:33;;;;;;;;;;;19.30;99.90;;;;;;5050272;28;19925;-69
2023/06/11 04:43:00;;;;;;;;;;;19.30;99.90;;;;;;5050076;28;19920;-69
2023/06/11 04:45:26;;;;;;;;;;;19.30;99.90;;;;;;5049630;28;19956;-69
2023/06/11 04:47:52;;;;;;;;;;;19.30;99.90;;;;;;5049641;28;19927;-69
2023/06/11 04:50:20;;;;;;;;;;;19.40;99.90;;;;;;5031335;28;19924;-69
2023/06/11 04:52:48;;;;;;;;;;;19.40;99.90;;;;;;5049512;28;19967;-69
2023/06/11 04:55:14;;;;;;;;;;;19.40;99.90;;;;;;5050394;28;19944;-69
2023/06/11 04:57:40;;;;;;;;;;;19.40;99.90;;;;;;5031821;28;19920;-69
2023/06/11 05:00:10;;;;;;;;;;;19.50;99.90;;;;;;5051104;28;19967;-69
2023/06/11 05:02:44;;;;;;;;;;;19.50;99.90;;;;;;5049929;28;19967;-69
2023/06/11 05:05:10;;;;;;;;;;;19.50;99.90;;;;;;5049341;28;19927;-69
2023/06/11 05:07:35;;;;;;;;;;;19.60;99.90;;;;;;5048892;28;19921;-69
2023/06/11 05:10:01;;;;;;;;;;;19.60;99.90;;;;;;5031550;28;19940;-69
2023/06/11 05:12:26;;;;;;;;;;;19.60;99.90;;;;;;5049178;28;20015;-69
2023/06/11 05:14:52;;;;;;;;;;;19.60;99.90;;;;;;5049224;28;19924;-69
2023/06/11 05:17:18;;;;;;;;;;;19.60;99.90;;;;;;5049144;28;19928;-69
2023/06/11 05:19:43;;;;;;;;;;;19.70;99.90;;;;;;5053362;28;19967;-69
2023/06/11 05:22:09;;;;;;;;;;;19.70;99.90;;;;;;5053118;28;19927;-70
2023/06/11 05:24:35;;;;;;;;;;;19.70;99.90;;;;;;5054994;28;19932;-69
2023/06/11 05:27:01;;;;;;;;;;;19.70;99.90;;;;;;5053621;28;19927;-69
2023/06/11 05:29:27;;;;;;;;;;;19.70;99.90;;;;;;5053417;28;20380;-69
2023/06/11 05:31:52;;;;;;;;;;;19.80;99.90;;;;;;5053466;28;19924;-69
2023/06/11 05:34:18;;;;;;;;;;;19.80;99.90;;;;;;5054053;28;19924;-69
2023/06/11 05:36:45;;;;;;;;;;;19.80;99.90;;;;;;5053823;28;19928;-69
2023/06/11 05:39:12;;;;;;;;;;;19.80;99.90;;;;;;5034004;28;20380;-69
2023/06/11 05:41:38;;;;;;;;;;;19.80;99.90;;;;;;5053014;28;20003;-69
2023/06/11 05:44:03;;;;;;;;;;;19.80;99.90;;;;;;5034590;28;20391;-69
2023/06/11 05:46:29;;;;;;;;;;;19.90;99.90;;;;;;5054168;28;19921;-69
2023/06/11 05:48:55;;;;;;;;;;;19.90;99.90;;;;;;5053959;28;19921;-69
2023/06/11 05:51:20;;;;;;;;;;;19.90;99.90;;;;;;5053243;28;19976;-69
2023/06/11 05:53:46;;;;;;;;;;;20.00;99.90;;;;;;5058357;28;19928;-69
2023/06/11 05:56:11;;;;;;;;;;;20.00;99.90;;;;;;5041816;28;19921;-69
2023/06/11 05:58:38;;;;;;;;;;;20.00;99.90;;;;;;5053649;28;20411;-69
2023/06/11 06:01:04;;;;;;;;;;;20.00;99.90;;;;;;5053359;28;19964;-69
2023/06/11 06:03:30;;;;;;;;;;;20.10;99.90;;;;;;5051887;28;19968;-69
2023/06/11 06:05:56;;;;;;;;;;;20.10;99.90;;;;;;5052269;28;19931;-69
2023/06/11 06:08:23;;;;;;;;;;;20.10;99.90;;;;;;5033691;28;19921;-69
2023/06/11 06:10:48;;;;;;;;;;;20.20;99.90;;;;;;5034143;28;20388;-69
2023/06/11 06:13:13;;;;;;;;;;;20.20;99.90;;;;;;5051687;28;19921;-69
2023/06/11 06:15:39;;;;;;;;;;;20.20;99.90;;;;;;5052209;28;19925;-69
2023/06/11 06:18:05;;;;;;;;;;;20.20;99.90;;;;;;5052770;28;19995;-69
2023/06/11 06:20:30;;;;;;;;;;;20.30;99.90;;;;;;5051657;28;19924;-69
2023/06/11 06:22:56;;;;;;;;;;;20.30;99.90;;;;;;5053127;28;19979;-69
2023/06/11 06:25:24;;;;;;;;;;;20.40;99.90;;;;;;5053168;28;19964;-69
2023/06/11 06:27:50;;;;;;;;;;;20.40;99.90;;;;;;5035044;28;20595;-69
2023/06/11 06:30:16;;;;;;;;;;;20.50;99.90;;;;;;5052304;28;19967;-69
2023/06/11 06:32:43;;;;;;;;;;;20.60;99.90;;;;;;5052240;28;20386;-69
2023/06/11 06:35:08;;;;;;;;;;;20.60;99.90;;;;;;5053377;28;19982;-69
2023/06/11 06:37:34;;;;;;;;;;;20.60;99.90;;;;;;5052286;28;20391;-69
2023/06/11 06:40:00;;;;;;;;;;;20.60;99.90;;;;;;5053463;28;19924;-69
2023/06/11 06:42:25;;;;;;;;;;;20.60;99.90;;;;;;5034689;28;19924;-69
2023/06/11 06:44:51;;;;;;;;;;;20.70;99.90;;;;;;5052670;28;19925;-69
2023/06/11 06:47:16;;;;;;;;;;;20.70;99.90;;;;;;5052653;28;19920;-69
2023/06/11 06:49:42;;;;;;;;;;;20.70;99.90;;;;;;5034877;28;20292;-69
2023/06/11 06:52:11;;;;;;;;;;;20.80;99.90;;;;;;5051129;28;19931;-69
2023/06/11 06:54:36;;;;;;;;;;;20.80;99.90;;;;;;5057560;28;19974;-69
2023/06/11 06:57:02;;;;;;;;;;;20.80;99.90;;;;;;5033991;28;20338;-69
2023/06/11 06:59:28;;;;;;;;;;;20.90;99.90;;;;;;5052451;28;19925;-69
2023/06/11 07:01:53;;;;;;;;;;;21.00;99.90;;;;;;5051424;28;19999;-69
2023/06/11 07:04:19;;;;;;;;;;;21.00;99.90;;;;;;5050707;28;19920;-69
2023/06/11 07:06:44;;;;;;;;;;;21.10;99.90;;;;;;5051773;28;19920;-69
2023/06/11 07:09:10;;;;;;;;;;;21.20;99.90;;;;;;5051188;28;19927;-70
2023/06/11 07:11:35;;;;;;;;;;;21.20;99.90;;;;;;5052468;28;19921;-69
2023/06/11 07:14:01;;;;;;;;;;;21.30;99.90;;;;;;5034355;28;19921;-69
2023/06/11 07:16:26;;;;;;;;;;;21.30;99.90;;;;;;5050153;28;19928;-69
2023/06/11 07:18:52;;;;;;;;;;;21.30;99.90;;;;;;5050105;28;19932;-69
2023/06/11 07:21:17;;;;;;;;;;;21.30;99.90;;;;;;5049938;28;19924;-69
2023/06/11 07:23:43;;;;;;;;;;;21.30;99.90;;;;;;5052709;28;20291;-69
2023/06/11 07:26:11;;;;;;;;;;;21.40;99.90;;;;;;5049801;28;19929;-69
2023/06/11 07:28:36;;;;;;;;;;;21.50;99.90;;;;;;5032159;28;19924;-69
2023/06/11 07:31:02;;;;;;;;;;;21.50;99.90;;;;;;5049603;28;19966;-69
2023/06/11 07:33:27;;;;;;;;;;;21.60;99.90;;;;;;5049733;28;20406;-70
2023/06/11 07:35:54;;;;;;;;;;;21.60;99.90;;;;;;5050054;28;19936;-69
2023/06/11 07:38:20;;;;;;;;;;;21.70;99.90;;;;;;5050076;28;19929;-69
2023/06/11 07:40:46;;;;;;;;;;;21.80;99.90;;;;;;5049719;28;19920;-70
2023/06/11 07:43:11;;;;;;;;;;;21.80;99.90;;;;;;5050218;28;19927;-70
2023/06/11 07:45:37;;;;;;;;;;;21.90;99.90;;;;;;5050203;28;19942;-70
2023/06/11 07:48:02;;;;;;;;;;;22.00;99.90;;;;;;5049878;28;20406;-70
2023/06/11 07:50:28;;;;;;;;;;;22.00;99.90;;;;;;5049659;28;19920;-70
2023/06/11 07:52:53;;;;;;;;;;;22.10;99.90;;;;;;5049888;28;19921;-70
2023/06/11 07:55:19;;;;;;;;;;;22.20;99.90;;;;;;5048659;28;19924;-70
2023/06/11 07:57:44;;;;;;;;;;;22.30;99.90;;;;;;5049969;28;20924;-70
2023/06/11 08:00:12;;;;;;;;;;;22.40;99.90;;;;;;5016198;28;20330;-70
2023/06/11 08:02:41;;;;;;;;;;;22.50;99.90;;;;;;5050805;28;19943;-70
2023/06/11 08:05:07;;;;;;;;;;;22.50;99.90;;;;;;5048136;28;20055;-70
2023/06/11 08:07:32;;;;;;;;;;;22.60;99.90;;;;;;5052429;28;20028;-70
2023/06/11 08:09:58;;;;;;;;;;;22.60;99.90;;;;;;5064102;28;20307;-69
2023/06/11 08:12:23;;;;;;;;;;;22.70;99.90;;;;;;5058787;28;20304;-71
2023/06/11 08:14:49;;;;;;;;;;;22.90;99.90;;;;;;5031991;28;19990;-70
2023/06/11 08:17:14;;;;;;;;;;;23.00;99.90;;;;;;5060009;28;19920;-70
2023/06/11 08:19:40;;;;;;;;;;;23.00;99.90;;;;;;5062396;28;19943;-69
2023/06/11 08:22:05;;;;;;;;;;;23.10;99.90;;;;;;5065944;28;19924;-71
2023/06/11 08:24:31;;;;;;;;;;;23.10;99.90;;;;;;5058398;28;20015;-69
2023/06/11 08:26:57;;;;;;;;;;;23.30;99.90;;;;;;5064106;28;19920;-70
2023/06/11 08:29:22;;;;;;;;;;;23.30;99.90;;;;;;5059083;28;20319;-70
2023/06/11 08:31:48;;;;;;;;;;;23.40;99.90;;;;;;5063984;28;20486;-69
2023/06/11 08:34:13;;;;;;;;;;;23.50;99.90;;;;;;5054385;28;19921;-69
2023/06/11 08:36:40;;;;;;;;;;;23.60;99.90;;;;;;5045552;28;19950;-69
2023/06/11 08:39:06;;;;;;;;;;;23.70;99.90;;;;;;5056098;28;19925;-70
2023/06/11 08:41:31;;;;;;;;;;;23.80;99.90;;;;;;5053183;28;19974;-69
2023/06/11 08:43:57;;;;;;;;;;;23.80;99.90;;;;;;5055944;28;19928;-69
2023/06/11 08:46:24;;;;;;;;;;;23.90;99.90;;;;;;5035230;28;20395;-70
2023/06/11 08:48:59;;;;;;;;;;;24.10;99.90;;;;;;5059844;28;19929;-70
2023/06/11 08:51:27;;;;;;;;;;;24.20;99.90;;;;;;5045190;28;20342;-70
2023/06/11 08:53:53;;;;;;;;;;;24.30;99.90;;;;;;5058463;28;19925;-69
2023/06/11 08:56:18;;;;;;;;;;;24.40;99.90;;;;;;5068094;28;19974;-70
2023/06/11 08:58:44;;;;;;;;;;;24.50;99.90;;;;;;5062862;28;19966;-70
2023/06/11 09:01:10;;;;;;;;;;;24.60;99.90;;;;;;5041340;28;19975;-69
2023/06/11 09:03:35;;;;;;;;;;;24.80;99.90;;;;;;5052530;28;19928;-69
2023/06/11 09:06:01;;;;;;;;;;;25.00;99.90;;;;;;5052841;28;19921;-70
2023/06/11 09:08:27;;;;;;;;;;;25.10;99.90;;;;;;5053656;28;19950;-69
2023/06/11 09:10:52;;;;;;;;;;;25.20;99.90;;;;;;5052629;28;19943;-70
2023/06/11 09:13:18;;;;;;;;;;;25.30;99.90;;;;;;5064229;28;19929;-70
2023/06/11 09:15:57;;;;;;;;;;;25.30;99.60;;;;;;5052311;28;19927;-70
2023/06/11 09:18:24;;;;;;;;;;;25.40;99.50;;;;;;5052885;28;19927;-70
2023/06/11 09:20:53;;;;;;;;;;;25.50;99.80;;;;;;5065209;28;19924;-70
2023/06/11 09:23:28;;;;;;;;;;;25.60;99.00;;;;;;5039345;28;19924;-70
2023/06/11 09:25:53;;;;;;;;;;;25.70;99.20;;;;;;5055210;28;19927;-70
2023/06/11 09:28:19;;;;;;;;;;;25.80;98.60;;;;;;5056726;28;19921;-70
2023/06/11 09:30:55;;;;;;;;;;;25.90;98.80;;;;;;5061566;28;19920;-70
2023/06/11 09:33:20;;;;;;;;;;;26.10;98.80;;;;;;5025174;28;20371;-71
2023/06/11 09:35:46;;;;;;;8.43;4.70;;;26.50;98.50;;;;;;5056339;28;20719;-71
2023/06/11 09:38:15;;;;;;;;;;;26.70;98.30;;;;;;5055627;28;20043;-71
2023/06/11 09:40:46;;;;;;;10.02;3.97;;;27.00;97.60;;;;;;5061205;28;19920;-70
2023/06/11 09:43:13;;;;;;;8.15;4.60;;;27.30;98.40;;;;;;5051286;28;20444;-71
2023/06/11 09:45:40;;;;;;;6.85;4.35;;;27.50;97.60;;;;;;5040316;28;20427;-71
2023/06/11 09:48:06;;;;;;;;;;;27.70;96.40;;;;;;5052635;28;20129;-71
2023/06/11 09:50:35;;;;;;;;;;;27.90;95.70;;;;;;5044051;28;20505;-70
2023/06/11 09:53:03;;;;;;;8.45;4.00;;;28.00;95.40;;;;;;5065016;28;19978;-71
2023/06/11 09:55:30;;;;;;;6.50;3.97;;;28.10;95.40;;;;;;5051698;28;20433;-71
2023/06/11 09:57:56;;;;;;;;;;;28.30;95.80;;;;;;5056594;28;20507;-70
2023/06/11 10:00:22;;;;;;;5.88;3.70;;;28.50;95.30;;;;;;5045747;28;19964;-71
2023/06/11 10:02:47;;;;;;;;;;;28.70;93.60;;;;;;5045441;28;20045;-71
2023/06/11 10:05:14;;;;;;;9.40;3.50;;;28.70;93.60;;;;;;5052415;28;19964;-71
2023/06/11 10:07:44;;;;;;;9.55;4.18;;;28.80;93.90;;;;;;5044789;28;20055;-71
2023/06/11 10:10:12;;;;;;;7.22;4.30;;;29.00;93.00;;;;;;5048266;28;20468;-71
2023/06/11 10:12:38;;;;;;;6.43;4.07;;;29.10;92.80;;;;;;5043945;28;20427;-71
2023/06/11 10:15:09;;;;;;;8.80;4.13;;;29.20;92.90;;;;;;5049227;28;20455;-69
2023/06/11 10:17:35;;;;;;;5.68;3.55;;;29.40;93.10;;;;;;5040400;28;20500;-70
2023/06/11 10:20:01;;;;;;;7.25;3.95;;;29.60;92.10;;;;;;5043686;28;20076;-70
2023/06/11 10:22:34;;;;;;;4.95;3.45;;;29.70;91.50;;;;;;5048306;28;20080;-68
2023/06/11 10:25:01;;;;;;;6.88;3.88;;;29.90;91.60;;;;;;5032069;28;20830;-68
2023/06/11 10:27:38;;;;;;;7.47;3.92;;;30.10;90.80;;;;;;5049485;28;20456;-68
2023/06/11 10:30:08;;;;;;;10.13;3.97;;;30.20;90.00;;;;;;5040291;28;20527;-69
2023/06/11 10:32:34;;;;;;;6.00;3.55;;;30.20;90.00;;;;;;5049283;28;20436;-69
2023/06/11 10:35:03;;;;;;;7.10;4.03;;;30.30;89.10;;;;;;5049207;28;20420;-70
2023/06/11 10:37:36;;;;;;;6.72;3.75;;;30.40;88.40;;;;;;5049374;28;20438;-69
2023/06/11 10:40:05;;;;;;;;;;;30.50;87.80;;;;;;5014256;28;20052;-69
2023/06/11 10:42:37;;;;;;;7.80;3.75;;;30.60;87.90;;;;;;5050210;28;19982;-69
2023/06/11 10:45:09;;;;;;;5.55;3.60;;;30.80;87.30;;;;;;5031901;28;20912;-69
2023/06/11 10:47:41;;;;;;;;;;;31.00;86.30;;;;;;5051197;28;20064;-69
2023/06/11 10:50:08;;;;;;;5.88;3.45;;;31.20;86.50;;;;;;5049915;28;19931;-69
2023/06/11 10:52:50;;;;;;;5.22;3.70;;;31.50;85.70;;;;;;5050756;28;20051;-70
2023/06/11 10:55:17;;;;;;;7.40;4.10;;;31.70;84.10;;;;;;5050259;28;20412;-69
2023/06/11 10:57:43;;;;;;;8.77;3.70;;;31.80;83.80;;;;;;5051498;28;20060;-69
2023/06/11 11:00:09;;;;;;;;;;;31.80;81.00;;;;;;5032606;28;20663;-70
2023/06/11 11:02:35;;;;;;;;;;;31.80;81.10;;;;;;5050106;28;19920;-69
2023/06/11 11:05:00;;;;;;;8.55;3.85;;;32.10;81.30;;;;;;5051490;28;20268;-69
2023/06/11 11:07:34;;;;;;;4.75;3.28;;;32.30;79.70;;;;;;5050204;28;20059;-69
2023/06/11 14:14:46;;;;;;;6.70;3.75;;;36.50;54.00;;;;;;5153924;27;20400;-69
2023/06/11 14:17:12;;;;;;;6.15;3.85;;;36.90;51.80;;;;;;5112164;28;20966;-71
2023/06/11 14:19:38;;;;;;;;;;;36.80;51.20;;;;;;5126093;27;20114;-70
2023/06/11 14:22:04;;;;;;;;;;;36.80;52.40;;;;;;5131229;27;19923;-70
2023/06/11 14:24:29;;;;;;;;;;;36.90;52.60;;;;;;5127967;27;20019;-70
2023/06/11 14:26:55;;;;;;;;;;;36.90;51.70;;;;;;5135062;27;20733;-71
2023/06/11 14:29:22;;;;;;;6.57;3.95;;;36.80;50.70;;;;;;5130613;27;20354;-72
2023/06/11 14:31:47;;;;;;;5.30;3.83;;;36.90;51.40;;;;;;5135668;27;20499;-71
2023/06/11 14:34:13;;;;;;;;;;;37.10;51.60;;;;;;5114563;27;20047;-70
2023/06/11 14:36:38;;;;;;;;;;;37.00;51.10;;;;;;5134470;27;19926;-71
2023/06/11 14:39:04;;;;;;;7.45;3.92;;;37.10;51.20;;;;;;5119763;27;19939;-70
2023/06/11 14:41:30;;;;;;;;;;;37.10;50.20;;;;;;5121695;27;20031;-70
2023/06/11 14:43:56;;;;;;;;;;;36.90;51.20;;;;;;5123980;27;19923;-73
2023/06/11 14:46:22;;;;;;;5.78;3.78;;;36.70;49.80;;;;;;5107525;27;19981;-70
2023/06/11 14:48:47;;;;;;;7.70;3.93;;;36.60;50.30;;;;;;5132428;27;20529;-70
2023/06/11 14:51:13;;;;;;;5.50;3.90;;;36.60;49.40;;;;;;5126956;27;20430;-70
2023/06/11 14:53:39;;;;;;;9.57;4.10;;;36.60;50.20;;;;;;5136564;27;20410;-70
2023/06/11 14:56:05;;;;;;;6.57;4.10;;;36.70;50.70;;;;;;5133007;27;20422;-73
2023/06/11 14:58:30;;;;;;;6.88;4.18;;;36.90;50.70;;;;;;5125076;27;20297;-71
2023/06/11 15:00:56;;;;;;;8.77;4.07;;;37.10;50.70;;;;;;5118911;27;20438;-70
2023/06/11 15:03:22;;;;;;;5.40;3.83;;;37.10;50.00;;;;;;5124063;27;20467;-71
2023/06/11 15:05:47;;;;;;;5.83;3.93;;;37.30;49.90;;;;;;5130214;27;20767;-71
2023/06/11 15:08:13;;;;;;;5.13;3.60;;;37.20;49.30;;;;;;5129365;27;20047;-71
2023/06/11 15:10:39;;;;;;;6.32;3.70;;;37.20;49.30;;;;;;5107999;28;20044;-71
2023/06/11 15:13:04;;;;;;;7.07;4.22;;;37.20;49.90;;;;;;5131561;27;20111;-71
2023/06/11 15:15:30;;;;;;;7.55;3.70;;;37.30;49.90;;;;;;5102478;28;20690;-71
2023/06/11 15:17:55;;;;;;;;;;;37.20;49.50;;;;;;5106667;28;20040;-71
2023/06/11 15:20:21;;;;;;;;;;;37.00;47.60;;;;;;5111612;27;19965;-70
2023/06/11 15:22:47;;;;;;;9.43;4.47;;;36.80;48.80;;;;;;5112406;27;19920;-71
2023/06/11 15:25:12;;;;;;;4.13;3.65;;;36.70;49.10;;;;;;5124641;27;20043;-71
2023/06/11 15:27:39;;;;;;;6.15;4.18;;;36.60;49.70;;;;;;5123589;27;20096;-70
2023/06/11 15:30:06;;;;;;;;;;;36.50;50.00;;;;;;5121188;27;20056;-70
2023/06/11 15:32:31;;;;;;;;;;;36.50;49.20;;;;;;5113292;27;19924;-70
2023/06/11 15:34:57;;;;;;;;;;;36.50;49.50;;;;;;5112352;27;19927;-70
2023/06/11 15:37:23;;;;;;;;;;;36.40;48.80;;;;;;5111675;27;19919;-70
2023/06/11 15:39:49;;;;;;;;;;;36.30;47.80;;;;;;5118847;27;19935;-70
2023/06/11 15:42:16;;;;;;;5.97;3.30;;;36.10;49.20;;;;;;5121087;27;19959;-71
2023/06/11 15:44:42;;;;;;;6.10;4.10;;;35.90;49.00;;;;;;5118121;27;20498;-71
2023/06/11 15:47:08;;;;;;;;;;;35.90;49.80;;;;;;5107552;27;20062;-70
2023/06/11 15:49:33;;;;;;;;;;;35.70;49.80;;;;;;5108051;27;19923;-71
2023/06/11 15:52:00;;;;;;;;;;;35.60;48.80;;;;;;5120867;27;19944;-70
2023/06/11 15:54:25;;;;;;;;;;;35.40;49.10;;;;;;5116713;27;19920;-71
2023/06/11 15:56:51;;;;;;;;;;;35.30;49.40;;;;;;5111176;27;20029;-71
2023/06/11 15:59:17;;;;;;;;;;;35.20;49.20;;;;;;5104283;27;19927;-70
2023/06/11 16:01:42;;;;;;;;;;;35.00;49.40;;;;;;5118301;27;20360;-70
2023/06/11 16:04:08;;;;;;;;;;;34.90;49.80;;;;;;5087024;28;19924;-70
2023/06/11 16:06:33;;;;;;;;;;;34.70;48.20;;;;;;5117697;27;19975;-70
2023/06/11 16:08:59;;;;;;;;;;;34.50;49.60;;;;;;5092774;28;19920;-70
2023/06/11 16:11:26;;;;;;;;;;;34.40;50.40;;;;;;5105631;27;19927;-72
2023/06/11 16:13:51;;;;;;;;;;;34.30;50.20;;;;;;5103654;27;20631;-70
2023/06/11 16:16:17;;;;;;;;;;;34.20;49.90;;;;;;5101011;27;20002;-71
2023/06/11 16:18:43;;;;;;;5.65;3.20;;;34.10;50.20;;;;;;5085764;28;19955;-70
2023/06/11 16:21:08;;;;;;;5.65;3.47;;;34.00;49.90;;;;;;5102738;27;20051;-70
2023/06/11 16:23:34;;;;;;;;;;;33.90;50.20;;;;;;5099203;27;20040;-71
2023/06/11 16:25:59;;;;;;;;;;;33.90;49.90;;;;;;5084438;28;19927;-70
2023/06/11 16:28:25;;;;;;;;;;;33.80;49.10;;;;;;5097306;28;19941;-70
2023/06/11 16:30:50;;;;;;;;;;;33.60;49.30;;;;;;5104024;27;20804;-70
2023/06/11 16:33:16;;;;;;;;;;;33.50;49.40;;;;;;5092868;27;20014;-70
2023/06/11 16:35:41;;;;;;;;;;;33.40;49.70;;;;;;5096524;27;19955;-71
2023/06/11 16:38:07;;;;;;;;;;;33.40;49.70;;;;;;5102659;27;19931;-70
2023/06/11 16:40:32;;;;;;;;;;;33.40;49.70;;;;;;5113983;27;19919;-71
2023/06/11 16:42:58;;;;;;;;;;;33.40;49.10;;;;;;5102469;27;19931;-70
2023/06/11 16:45:26;;;;;;;;;;;33.40;48.10;;;;;;5103698;27;20365;-69
2023/06/11 16:47:52;;;;;;;;;;;33.20;48.70;;;;;;5093796;27;19919;-70
2023/06/11 16:50:17;;;;;;;;;;;33.10;48.50;;;;;;5100561;27;20396;-70
2023/06/11 16:52:43;;;;;;;;;;;33.00;49.00;;;;;;5105161;28;19920;-70
2023/06/11 16:55:10;;;;;;;;;;;33.00;48.80;;;;;;5107953;27;19923;-70
2023/06/11 16:57:35;;;;;;;;;;;33.00;49.70;;;;;;5103813;27;19920;-70
2023/06/11 17:00:01;;;;;;;;;;;33.00;48.80;;;;;;5110732;27;19927;-71
2023/06/11 17:02:27;;;;;;;;;;;32.90;48.60;;;;;;5099935;27;19924;-70